APRIL 25, 2014

 

METAR SMJP 250500Z 04003KT 9999 SCT035 24/23 Q1013 NOSIG=

METAR SMZO 250500Z NIL=